| Date | Time | Temp. (oF) | Dew Point (oF) | Rel. Hum. (%) | Press. (in.) | Wind Dir. | Wind Speed (mph) | Hourly Rainfall (in.) |
|
|---|---|---|---|---|---|---|---|---|---|
| 1 | 11/07 | 00:00 | 42 | 36 | 82 | 30.14 | NNW | 4 | 0.00 |
| 2 | 11/06 | 23:00 | 44 | 37 | 78 | 30.13 | NNW | 6 | 0.00 |
| 3 | 11/06 | 22:00 | 46 | 38 | 76 | 30.14 | NNW | 8 | 0.00 |
| 4 | 11/06 | 21:00 | 48 | 41 | 79 | 30.11 | N | 11 | 0.00 |
| 5 | 11/06 | 20:00 | 52 | 44 | 76 | 30.09 | N | 8 | 0.00 |
| 6 | 11/06 | 19:00 | 55 | 47 | 77 | 30.05 | N | 13 | 0.00 |
| 7 | 11/06 | 18:00 | 58 | 51 | 79 | 30.01 | NW | 10 | 0.00 |
| 8 | 11/06 | 17:00 | 62 | 57 | 86 | 29.96 | WSW | 1 | 0.00 |
| 9 | 11/06 | 16:00 | 64 | 60 | 88 | 29.93 | NW | 4 | 0.00 |
| 10 | 11/06 | 15:00 | 64 | 59 | 86 | 29.91 | W | 2 | 0.00 |
| 11 | 11/06 | 14:00 | 63 | 59 | 87 | 29.91 | SW | 3 | 0.00 |
| 12 | 11/06 | 13:00 | 66 | 58 | 78 | 29.89 | WNW | 4 | 0.00 |
| 13 | 11/06 | 12:00 | 65 | 58 | 79 | 29.90 | SW | 2 | 0.00 |
| 14 | 11/06 | 11:00 | 62 | 58 | 87 | 29.87 | SE | 3 | 0.01 |
| 15 | 11/06 | 10:00 | 61 | 58 | 91 | 29.89 | SSE | 4 | 0.00 |
| 16 | 11/06 | 09:00 | 60 | 57 | 91 | 29.93 | SSE | 5 | 0.00 |
| 17 | 11/06 | 08:00 | 59 | 56 | 93 | 29.93 | SW | 2 | 0.00 |
| 18 | miss | miss | miss | miss | miss | miss | miss | miss | |
| 19 | 11/06 | 08:21 | 59 | 56 | 93 | 29.91 | SSE | 3 | 0.00 |
| 20 | miss | miss | miss | miss | miss | miss | miss | miss | |
| 21 | 11/06 | 08:19 | 59 | 56 | 93 | 29.91 | S | 3 | 0.00 |
| 22 | miss | miss | miss | miss | miss | miss | miss | miss | |
| 23 | 11/06 | 08:17 | 59 | 56 | 93 | 29.91 | S | 2 | 0.00 |
| 24 | miss | miss | miss | miss | miss | miss | miss | miss | |
| 25 | 11/06 | 08:15 | 59 | 56 | 93 | 29.91 | SSE | 3 | 0.00 |
| 26 | miss | miss | miss | miss | miss | miss | miss | miss | |
| 27 | 11/06 | 08:15 | 59 | 56 | 93 | 29.91 | SSE | 3 | 0.00 |
| 28 | miss | miss | miss | miss | miss | miss | miss | miss | |
| 29 | 11/06 | 08:15 | 59 | 56 | 93 | 29.91 | SSE | 3 | 0.00 |
| 30 | miss | miss | miss | miss | miss | miss | miss | miss | |
| 31 | 11/06 | 08:15 | 59 | 56 | 93 | 29.91 | SSE | 3 | 0.00 |
| 32 | miss | miss | miss | miss | miss | miss | miss | miss | |
| 33 | 11/06 | 08:15 | 59 | 56 | 93 | 29.91 | SSE | 3 | 0.00 |
| 34 | miss | miss | miss | miss | miss | miss | miss | miss | |
| 35 | 11/06 | 08:15 | 59 | 56 | 93 | 29.91 | SSE | 3 | 0.00 |
| 36 | miss | miss | miss | miss | miss | miss | miss | miss | |
| 37 | 11/06 | 08:15 | 59 | 56 | 93 | 29.91 | SSE | 3 | 0.00 |
| 38 | miss | miss | miss | miss | miss | miss | miss | miss | |
| 39 | 11/06 | 08:15 | 59 | 56 | 93 | 29.91 | SSE | 3 | 0.00 |
| 40 | miss | miss | miss | miss | miss | miss | miss | miss | |
| 41 | 11/06 | 08:00 | 59 | 56 | 93 | 29.90 | S | 3 | 0.00 |
| 42 | 11/06 | 07:00 | 60 | 57 | 92 | 29.90 | SSE | 6 | 0.00 |
| 43 | 11/06 | 06:00 | 60 | 57 | 92 | 29.90 | SSE | 3 | 0.00 |
| 44 | 11/06 | 05:00 | 60 | 57 | 91 | 29.91 | S | 6 | 0.00 |
| 45 | 11/06 | 04:00 | 60 | 57 | 92 | 29.93 | SSW | 7 | 0.00 |
| 46 | 11/06 | 03:00 | 60 | 57 | 92 | 29.94 | SSW | 7 | 0.00 |
| 47 | 11/06 | 02:00 | 60 | 58 | 94 | 29.96 | SSW | 5 | 0.00 |
| 48 | 11/06 | 01:00 | 60 | 58 | 94 | 29.98 | SSE | 15 | 0.00 |
| 49 | 11/06 | 00:00 | 60 | 58 | 94 | 29.99 | S | 7 | -0.01 |
| 50 | 11/05 | 23:00 | 60 | 58 | 95 | 30.00 | SSE | 5 | 0.00 |
| 51 | 11/05 | 22:00 | 60 | 58 | 96 | 30.01 | SSE | 4 | 0.00 |
| 52 | 11/05 | 21:00 | 60 | 58 | 95 | 30.02 | SSE | 4 | 0.00 |
| 53 | 11/05 | 20:00 | 59 | 57 | 95 | 30.02 | SE | 5 | 0.00 |
| 54 | 11/05 | 19:00 | 59 | 57 | 94 | 30.05 | S | 4 | 0.00 |
| 55 | 11/05 | 18:00 | 59 | 57 | 94 | 30.04 | SE | 2 | 0.00 |
| 56 | 11/05 | 17:00 | 59 | 57 | 94 | 30.06 | SSE | 5 | 0.00 |
| 57 | 11/05 | 16:00 | 59 | 57 | 94 | 30.07 | S | 3 | 0.00 |
| 58 | 11/05 | 15:00 | 59 | 56 | 93 | 30.08 | S | 1 | 0.00 |
| 59 | 11/05 | 14:00 | 58 | 55 | 92 | 30.12 | SSE | 3 | 0.00 |
| 60 | 11/05 | 13:00 | 58 | 55 | 91 | 30.14 | SE | 2 | 0.00 |
| 61 | 11/05 | 12:00 | 56 | 55 | 97 | 30.16 | S | 3 | 0.00 |
| 62 | 11/05 | 11:00 | 52 | 51 | 100 | 30.18 | NE | 2 | 0.00 |
| 63 | 11/05 | 10:00 | 51 | 50 | 97 | 30.20 | W | 2 | 0.00 |
| 64 | 11/05 | 09:00 | 50 | 50 | 100 | 30.21 | ENE | 2 | 0.00 |
| 65 | 11/05 | 08:00 | 49 | 49 | 100 | 30.20 | E | 1 | 0.00 |
| 66 | 11/05 | 07:00 | 49 | 49 | 100 | 30.20 | NE | 2 | 0.00 |
| 67 | 11/05 | 06:00 | 48 | 48 | 100 | 30.20 | E | 5 | 0.00 |
| 68 | 11/05 | 05:00 | 48 | 48 | 100 | 30.21 | ENE | 2 | 0.00 |
| 69 | 11/05 | 04:00 | 48 | 48 | 100 | 30.22 | ENE | 4 | 0.00 |
| 70 | 11/05 | 03:00 | 48 | 48 | 100 | 30.24 | ENE | 3 | 0.03 |
| 71 | 11/05 | 02:00 | 48 | 48 | 100 | 30.25 | E | 3 | 0.02 |
| 72 | 11/05 | 01:00 | 48 | 47 | 99 | 30.26 | ESE | 3 | 0.01 |